Littlefork, Minnesota
Current Conditions -  °F | °C
As of 2:55 PM on Friday 28 Nov 2014 (Local Time) from KINL Reporting Station
Overcast Overcast  
Wind Chill:   Ceiling: 1700
Heat Index: 15°   Visibility: 10mi
Dew Point:   Wind: 9mph
Humidity: 70%   Direction: 110°ESE
Pressure: 29.88"   Gusts: NA
Location:  48.4°N, 93.56°W
Report Text: KINL 282055Z AUTO 11008KT 10SM OVC017 M09/M14 A2988 RMK AO2 SNB17E28 SLP147 P0000 60000 T10941139 56022 $
Loading
Personal Weather Stations






























Interactive Weather Map New forecast layout! Learn more

10-Day Weather Forecast

Advertisements
Track Severe Weather on mobile